createdAt,value
2017-04-01T00:00:55.307Z,34.90
2017-04-01T00:02:01.953Z,37.05
2017-04-01T00:03:07.955Z,34.75
2017-04-01T00:04:14.041Z,35.22
2017-04-01T00:05:20.169Z,35.35
2017-04-01T00:06:26.042Z,36.85
2017-04-01T00:07:32.482Z,42.98
2017-04-01T00:08:39.374Z,33.27
2017-04-01T00:09:46.311Z,35.48
2017-04-01T00:10:52.489Z,36.88
2017-04-01T00:11:58.604Z,35.70
2017-04-01T00:13:07.334Z,32.68
2017-04-01T00:14:13.258Z,35.30
2017-04-01T00:15:20.179Z,36.10
2017-04-01T00:16:26.272Z,35.27
2017-04-01T00:17:32.471Z,38.07
2017-04-01T00:18:39.180Z,32.93
2017-04-01T00:19:45.294Z,34.58
2017-04-01T00:20:52.703Z,31.68
2017-04-01T00:21:58.746Z,32.15
2017-04-01T00:23:04.683Z,35.20
2017-04-01T00:24:11.011Z,34.08
2017-04-01T00:25:17.197Z,34.45
2017-04-01T00:26:23.385Z,33.57
2017-04-01T00:27:29.356Z,35.53
2017-04-01T00:28:39.564Z,37.03
2017-04-01T00:29:46.022Z,36.10
2017-04-01T00:30:52.113Z,38.07
2017-04-01T00:31:58.370Z,36.92
2017-04-01T00:33:04.329Z,36.43
2017-04-01T00:34:11.513Z,33.67
2017-04-01T00:35:17.969Z,38.87
2017-04-01T00:36:25.065Z,36.88
2017-04-01T00:37:31.387Z,32.70
2017-04-01T00:38:38.044Z,36.88
2017-04-01T00:39:44.186Z,33.90
2017-04-01T00:40:51.649Z,33.77
2017-04-01T00:41:58.496Z,39.27
2017-04-01T00:43:04.854Z,34.08
2017-04-01T00:44:11.018Z,36.07
2017-04-01T00:45:17.286Z,32.45
2017-04-01T00:46:23.520Z,34.92
2017-04-01T00:47:29.541Z,39.83
2017-04-01T00:48:36.585Z,34.75
2017-04-01T00:49:43.479Z,35.72
2017-04-01T00:50:49.470Z,33.15
2017-04-01T00:51:55.481Z,32.92
2017-04-01T00:53:01.493Z,37.50
2017-04-01T00:54:07.565Z,33.98
2017-04-01T00:55:13.697Z,38.33
2017-04-01T00:56:21.071Z,38.35
2017-04-01T00:57:27.475Z,32.83
2017-04-01T00:58:33.416Z,34.50
2017-04-01T00:59:39.696Z,32.42
2017-04-01T01:00:45.498Z,36.67
2017-04-01T01:01:51.556Z,35.23
2017-04-01T01:02:58.759Z,35.15
2017-04-01T01:04:04.864Z,36.45
2017-04-01T01:05:10.941Z,34.20
2017-04-01T01:06:17.049Z,35.30
2017-04-01T01:07:22.980Z,32.80
2017-04-01T01:08:29.112Z,40.65
2017-04-01T01:09:35.203Z,34.88
2017-04-01T01:10:42.276Z,37.88
2017-04-01T01:11:48.207Z,34.65
2017-04-01T01:12:56.147Z,36.47
2017-04-01T01:14:02.500Z,38.33
2017-04-01T01:15:08.548Z,35.37
2017-04-01T01:16:14.856Z,33.78
2017-04-01T01:17:20.808Z,36.67
2017-04-01T01:18:27.628Z,37.75
2017-04-01T01:19:33.778Z,37.15
2017-04-01T01:20:39.880Z,38.47
2017-04-01T01:21:49.523Z,33.63
2017-04-01T01:22:55.670Z,36.87
2017-04-01T01:24:01.787Z,35.75
2017-04-01T01:25:08.012Z,33.05
2017-04-01T01:26:14.346Z,38.55
2017-04-01T01:27:20.986Z,36.53
2017-04-01T01:28:28.548Z,37.85
2017-04-01T01:29:35.353Z,38.40
2017-04-01T01:30:42.485Z,35.13
2017-04-01T01:31:48.587Z,36.78
2017-04-01T01:32:54.611Z,36.63
2017-04-01T01:34:00.872Z,36.17
2017-04-01T01:35:07.832Z,36.55
2017-04-01T01:36:14.117Z,39.93
2017-04-01T01:37:19.983Z,44.73
2017-04-01T01:38:26.005Z,43.52
2017-04-01T01:39:32.038Z,53.33
2017-04-01T01:40:37.924Z,49.38
2017-04-01T01:41:44.072Z,45.77
2017-04-01T01:42:50.805Z,47.60
2017-04-01T01:43:56.891Z,48.75
2017-04-01T01:45:03.069Z,40.98
2017-04-01T01:46:08.947Z,40.35
2017-04-01T01:47:15.284Z,41.60
2017-04-01T01:48:21.287Z,49.62
2017-04-01T01:49:27.235Z,47.15
2017-04-01T01:50:33.204Z,35.72
2017-04-01T01:51:39.304Z,41.88
2017-04-01T01:52:45.524Z,47.78
2017-04-01T01:53:51.490Z,45.68
2017-04-01T01:54:57.588Z,44.15
2017-04-01T01:56:03.785Z,46.12
2017-04-01T01:57:09.969Z,43.63
2017-04-01T01:58:16.263Z,41.95
2017-04-01T01:59:22.142Z,43.60
2017-04-01T02:00:28.216Z,46.70
2017-04-01T02:01:34.359Z,42.22
2017-04-01T02:02:40.597Z,42.27
2017-04-01T02:03:46.656Z,47.87
2017-04-01T02:04:52.843Z,44.50
2017-04-01T02:05:59.049Z,47.13
2017-04-01T02:07:04.916Z,47.40
2017-04-01T02:08:10.954Z,47.07
2017-04-01T02:09:17.108Z,42.18
2017-04-01T02:10:23.051Z,44.58
2017-04-01T02:11:28.993Z,42.53
2017-04-01T02:12:35.091Z,42.67
2017-04-01T02:13:41.229Z,47.07
2017-04-01T02:14:47.199Z,48.50
2017-04-01T02:15:53.128Z,43.88
2017-04-01T02:16:59.095Z,47.60
2017-04-01T02:18:05.155Z,42.05
2017-04-01T02:19:11.157Z,41.97
2017-04-01T02:20:17.344Z,41.65
2017-04-01T02:21:23.248Z,47.80
2017-04-01T02:22:29.291Z,45.10
2017-04-01T02:23:35.240Z,45.75
2017-04-01T02:24:41.307Z,45.20
2017-04-01T02:25:47.700Z,41.35
2017-04-01T02:26:53.595Z,50.40
2017-04-01T02:27:59.560Z,49.30
2017-04-01T02:29:05.636Z,37.50
2017-04-01T02:30:11.582Z,44.17
2017-04-01T02:31:17.638Z,37.63
2017-04-01T02:32:23.665Z,43.37
2017-04-01T02:33:29.698Z,40.32
2017-04-01T02:34:35.781Z,41.37
2017-04-01T02:35:41.912Z,43.85
2017-04-01T02:36:48.628Z,39.95
2017-04-01T02:37:54.563Z,40.97
2017-04-01T02:39:00.589Z,40.43
2017-04-01T02:40:07.404Z,38.10
2017-04-01T02:41:13.447Z,38.10
2017-04-01T02:42:19.644Z,43.55
2017-04-01T02:43:25.759Z,32.72
2017-04-01T02:44:31.900Z,36.07
2017-04-01T02:45:38.004Z,38.90
2017-04-01T02:46:44.148Z,39.70
2017-04-01T02:47:50.290Z,38.97
2017-04-01T02:48:56.495Z,34.53
2017-04-01T02:50:02.539Z,39.65
2017-04-01T02:51:08.643Z,38.10
2017-04-01T02:52:14.692Z,40.93
2017-04-01T02:53:20.800Z,47.47
2017-04-01T02:54:26.779Z,43.17
2017-04-01T02:55:32.779Z,36.18
2017-04-01T02:56:38.848Z,37.02
2017-04-01T02:57:44.962Z,41.00
2017-04-01T02:58:51.240Z,38.40
2017-04-01T02:59:57.152Z,37.27
2017-04-01T03:01:03.101Z,35.45
2017-04-01T03:02:09.224Z,38.07
2017-04-01T03:03:15.433Z,38.07
2017-04-01T03:04:21.678Z,36.13
2017-04-01T03:05:27.776Z,43.20
2017-04-01T03:06:33.812Z,38.28
2017-04-01T03:07:39.819Z,35.03
2017-04-01T03:08:45.836Z,40.07
2017-04-01T03:09:51.959Z,38.08
2017-04-01T03:10:57.784Z,39.95
2017-04-01T03:12:04.011Z,37.47
2017-04-01T03:13:10.019Z,41.23
2017-04-01T03:14:15.971Z,38.28
2017-04-01T03:15:22.227Z,39.07
2017-04-01T03:16:28.275Z,37.73
2017-04-01T03:17:34.412Z,41.08
2017-04-01T03:18:40.576Z,34.33
2017-04-01T03:19:46.419Z,38.70
2017-04-01T03:20:52.365Z,38.17
2017-04-01T03:21:58.464Z,37.43
2017-04-01T03:23:04.477Z,43.73
2017-04-01T03:24:10.484Z,39.00
2017-04-01T03:25:17.281Z,31.97
2017-04-01T03:26:23.695Z,41.98
2017-04-01T03:27:29.605Z,39.58
2017-04-01T03:28:35.634Z,42.68
2017-04-01T03:29:41.599Z,38.77
2017-04-01T03:30:47.642Z,36.80
2017-04-01T03:31:53.811Z,38.23
2017-04-01T03:32:59.808Z,39.25
2017-04-01T03:34:05.777Z,42.27
2017-04-01T03:35:12.567Z,39.40
2017-04-01T03:36:18.664Z,42.60
2017-04-01T03:37:24.768Z,41.25
2017-04-01T03:38:30.817Z,39.40
2017-04-01T03:39:36.908Z,41.48
2017-04-01T03:40:43.013Z,46.88
2017-04-01T03:41:49.036Z,40.63
2017-04-01T03:42:55.214Z,37.40
2017-04-01T03:44:01.178Z,41.83
2017-04-01T03:45:07.148Z,42.47
2017-04-01T03:46:13.206Z,41.13
2017-04-01T03:47:19.211Z,41.20
2017-04-01T03:48:25.480Z,43.28
2017-04-01T03:49:31.427Z,44.37
2017-04-01T03:50:37.608Z,42.92
2017-04-01T03:51:43.712Z,42.03
2017-04-01T03:52:49.677Z,46.52
2017-04-01T03:53:55.833Z,43.18
2017-04-01T03:55:01.805Z,45.70
2017-04-01T03:56:07.973Z,45.10
2017-04-01T03:57:13.980Z,45.42
2017-04-01T03:58:19.980Z,44.48
2017-04-01T03:59:26.172Z,46.52
2017-04-01T04:00:32.156Z,46.47
2017-04-01T04:01:38.148Z,46.75
2017-04-01T04:02:44.876Z,50.62
2017-04-01T04:03:50.863Z,43.48
2017-04-01T04:04:56.964Z,45.42
2017-04-01T04:06:02.975Z,46.17
2017-04-01T04:07:08.984Z,62.37
2017-04-01T04:08:15.063Z,47.80
2017-04-01T04:09:21.106Z,46.73
2017-04-01T04:10:27.155Z,49.82
2017-04-01T04:11:33.239Z,46.30
2017-04-01T04:12:39.423Z,44.98
2017-04-01T04:13:45.434Z,52.22
2017-04-01T04:14:51.482Z,47.27
2017-04-01T04:15:57.456Z,43.85
2017-04-01T04:17:03.420Z,52.07
2017-04-01T04:18:09.404Z,45.97
2017-04-01T04:19:15.380Z,47.97
2017-04-01T04:20:21.470Z,50.33
2017-04-01T04:21:27.625Z,57.13
2017-04-01T04:22:33.627Z,51.93
2017-04-01T04:23:39.845Z,46.78
2017-04-01T04:24:46.554Z,46.30
2017-04-01T04:25:52.724Z,47.37
2017-04-01T04:26:59.021Z,47.98
2017-04-01T04:28:05.175Z,48.72
2017-04-01T04:29:11.371Z,50.32
2017-04-01T04:30:17.396Z,48.93
2017-04-01T04:31:23.527Z,48.25
2017-04-01T04:32:29.612Z,50.35
2017-04-01T04:33:35.615Z,48.35
2017-04-01T04:34:41.749Z,49.98
2017-04-01T04:35:47.800Z,55.13
2017-04-01T04:36:54.025Z,52.45
2017-04-01T04:38:00.068Z,56.77
2017-04-01T04:39:06.145Z,51.27
2017-04-01T04:40:12.417Z,48.87
2017-04-01T04:41:18.363Z,51.42
2017-04-01T04:42:24.428Z,57.55
2017-04-01T04:43:30.709Z,55.70
2017-04-01T04:44:36.634Z,53.62
2017-04-01T04:45:42.602Z,53.33
2017-04-01T04:46:49.358Z,61.38
2017-04-01T04:47:55.367Z,57.63
2017-04-01T04:49:08.149Z,57.25
2017-04-01T04:50:14.176Z,55.45
2017-04-01T04:51:20.064Z,59.33
2017-04-01T04:52:27.093Z,54.48
2017-04-01T04:53:34.960Z,59.57
2017-04-01T04:54:44.384Z,58.02
2017-04-01T04:55:50.548Z,58.15
2017-04-01T04:56:56.612Z,60.90
2017-04-01T04:58:02.740Z,55.50
2017-04-01T04:59:08.836Z,54.87
2017-04-01T05:00:14.925Z,62.17
2017-04-01T05:01:20.989Z,61.08
2017-04-01T05:02:27.652Z,63.17
2017-04-01T05:03:33.904Z,54.88
2017-04-01T05:04:40.021Z,58.72
2017-04-01T05:05:46.282Z,64.45
2017-04-01T05:06:52.289Z,61.12
2017-04-01T05:07:58.495Z,60.02
2017-04-01T05:09:04.647Z,64.05
2017-04-01T05:10:10.677Z,65.40
2017-04-01T05:11:16.860Z,61.75
2017-04-01T05:12:22.883Z,64.82
2017-04-01T05:13:29.740Z,65.18
2017-04-01T05:14:35.738Z,62.43
2017-04-01T05:15:41.692Z,62.73
2017-04-01T05:16:47.671Z,66.40
2017-04-01T05:17:54.617Z,64.95
2017-04-01T05:19:00.740Z,62.27
2017-04-01T05:20:06.873Z,69.92
2017-04-01T05:21:12.844Z,70.42
2017-04-01T05:22:18.981Z,66.67
2017-04-01T05:23:25.247Z,68.75
2017-04-01T05:24:32.161Z,63.17
2017-04-01T05:25:38.196Z,64.87
2017-04-01T05:26:44.095Z,62.58
2017-04-01T05:27:50.219Z,64.83
2017-04-01T05:28:57.288Z,65.32
2017-04-01T05:30:03.388Z,67.48
2017-04-01T05:31:10.335Z,67.25
2017-04-01T05:32:16.444Z,68.90
2017-04-01T05:33:22.610Z,66.40
2017-04-01T05:34:28.715Z,70.03
2017-04-01T05:35:34.722Z,71.15
2017-04-01T05:36:40.796Z,64.17
2017-04-01T05:37:46.901Z,70.35
2017-04-01T05:38:52.980Z,64.52
2017-04-01T05:39:58.851Z,72.55
2017-04-01T05:41:04.902Z,63.53
2017-04-01T05:42:10.992Z,69.90
2017-04-01T05:43:17.003Z,74.83
2017-04-01T05:44:23.028Z,85.17
2017-04-01T05:45:29.020Z,94.95
2017-04-01T05:46:35.247Z,75.10
2017-04-01T05:47:41.627Z,77.92
2017-04-01T05:48:47.890Z,74.90
2017-04-01T05:49:54.219Z,68.88
2017-04-01T05:51:00.230Z,79.75
2017-04-01T05:52:06.404Z,75.20
2017-04-01T05:53:14.144Z,73.23
2017-04-01T05:54:20.511Z,67.18
2017-04-01T05:55:26.959Z,66.03
2017-04-01T05:56:33.888Z,77.80
2017-04-01T05:57:40.941Z,70.25
2017-04-01T05:58:47.011Z,71.92
2017-04-01T05:59:53.154Z,67.60
2017-04-01T06:00:59.164Z,74.97
2017-04-01T06:02:07.261Z,73.23
2017-04-01T06:03:14.001Z,65.90
2017-04-01T06:04:20.071Z,62.35
2017-04-01T06:05:26.771Z,62.77
2017-04-01T06:06:41.175Z,58.08
2017-04-01T06:07:49.094Z,61.60
2017-04-01T06:08:57.051Z,70.45
2017-04-01T06:10:03.269Z,76.05
2017-04-01T06:11:09.601Z,66.42
2017-04-01T06:12:15.870Z,59.78
2017-04-01T06:13:22.077Z,61.60
2017-04-01T06:14:28.742Z,69.07
2017-04-01T06:15:35.303Z,65.35
2017-04-01T06:16:42.201Z,61.82
2017-04-01T06:17:48.437Z,64.18
2017-04-01T06:18:56.045Z,57.47
2017-04-01T06:20:02.164Z,64.57
2017-04-01T06:21:08.273Z,60.95
2017-04-01T06:22:14.368Z,64.03
2017-04-01T06:23:20.752Z,60.68
2017-04-01T06:24:26.760Z,62.25
2017-04-01T06:25:32.934Z,62.42
2017-04-01T06:26:39.189Z,65.32
2017-04-01T06:27:45.259Z,62.90
2017-04-01T06:28:51.220Z,57.13
2017-04-01T06:29:57.343Z,65.78
2017-04-01T06:31:03.488Z,61.95
2017-04-01T06:32:09.613Z,60.40
2017-04-01T06:33:15.697Z,50.73
2017-04-01T06:34:21.884Z,56.20
2017-04-01T06:35:27.808Z,51.40
2017-04-01T06:36:33.896Z,52.45
2017-04-01T06:37:39.886Z,50.72
2017-04-01T06:38:45.904Z,49.13
2017-04-01T06:39:52.426Z,50.90
2017-04-01T06:40:59.425Z,48.55
2017-04-01T06:42:05.424Z,51.92
2017-04-01T06:43:11.699Z,48.40
2017-04-01T06:44:17.797Z,51.38
2017-04-01T06:45:23.699Z,52.67
2017-04-01T06:46:29.717Z,50.47
2017-04-01T06:47:35.847Z,50.23
2017-04-01T06:48:41.829Z,56.78
2017-04-01T06:49:47.751Z,53.97
2017-04-01T06:50:53.971Z,48.20
2017-04-01T06:52:00.133Z,52.05
2017-04-01T06:53:08.345Z,48.93
2017-04-01T06:54:14.340Z,44.23
2017-04-01T06:55:23.714Z,52.13
2017-04-01T06:56:30.056Z,48.15
2017-04-01T06:57:36.020Z,51.98
2017-04-01T06:58:42.128Z,46.30
2017-04-01T06:59:48.148Z,52.78
2017-04-01T07:00:54.198Z,43.50
2017-04-01T07:02:00.232Z,45.05
2017-04-01T07:03:06.275Z,47.00
2017-04-01T07:04:13.367Z,43.60
2017-04-01T07:05:19.564Z,46.37
2017-04-01T07:06:25.640Z,48.57
2017-04-01T07:07:31.873Z,45.78
2017-04-01T07:08:37.822Z,43.30
2017-04-01T07:09:44.556Z,45.63
2017-04-01T07:10:50.708Z,47.98
2017-04-01T07:11:57.432Z,53.78
2017-04-01T07:13:03.720Z,46.10
2017-04-01T07:14:09.681Z,43.47
2017-04-01T07:15:18.052Z,44.65
2017-04-01T07:16:24.864Z,41.97
2017-04-01T07:17:30.836Z,40.25
2017-04-01T07:18:37.423Z,38.12
2017-04-01T07:19:43.441Z,42.73
2017-04-01T07:20:49.386Z,41.37
2017-04-01T07:21:55.459Z,41.78
2017-04-01T07:23:01.485Z,43.23
2017-04-01T07:24:08.095Z,47.45
2017-04-01T07:25:14.151Z,41.65
2017-04-01T07:26:20.307Z,37.60
2017-04-01T07:27:26.248Z,35.70
2017-04-01T07:28:39.418Z,37.90
2017-04-01T07:29:45.802Z,35.82
2017-04-01T07:30:52.417Z,37.02
2017-04-01T07:31:58.659Z,39.83
2017-04-01T07:33:05.496Z,38.17
2017-04-01T07:34:11.806Z,37.78
2017-04-01T07:35:18.371Z,39.38
2017-04-01T07:36:26.329Z,39.92
2017-04-01T07:37:32.764Z,37.15
2017-04-01T07:38:39.530Z,38.82
2017-04-01T07:39:47.502Z,40.37
2017-04-01T07:40:54.045Z,41.52
2017-04-01T07:42:00.542Z,38.18
2017-04-01T07:43:06.706Z,37.20
2017-04-01T07:44:14.242Z,36.38
2017-04-01T07:45:22.831Z,38.07
2017-04-01T07:46:31.676Z,36.57
2017-04-01T07:47:40.928Z,33.97
2017-04-01T07:48:49.632Z,37.67
2017-04-01T07:49:59.000Z,33.33
2017-04-01T07:51:06.436Z,31.03
2017-04-01T07:52:14.085Z,32.18
2017-04-01T07:53:23.328Z,33.68
2017-04-01T07:54:32.246Z,33.40
2017-04-01T07:55:40.117Z,31.83
2017-04-01T07:56:50.215Z,33.38
2017-04-01T07:57:59.481Z,32.27
2017-04-01T07:59:11.293Z,36.18
2017-04-01T08:00:23.557Z,32.78
2017-04-01T08:01:29.963Z,36.07
2017-04-01T08:02:36.442Z,29.97
2017-04-01T08:03:42.483Z,31.48
2017-04-01T08:04:48.420Z,33.08
2017-04-01T08:05:54.460Z,33.20
2017-04-01T08:07:00.443Z,32.88
2017-04-01T08:08:06.569Z,34.08
2017-04-01T08:09:12.709Z,30.58
2017-04-01T08:10:18.624Z,33.78
2017-04-01T08:11:24.611Z,37.62
2017-04-01T08:12:30.575Z,29.22
2017-04-01T08:13:36.610Z,28.08
2017-04-01T08:14:42.762Z,29.95
2017-04-01T08:15:48.865Z,28.75
2017-04-01T08:16:55.878Z,28.55
2017-04-01T08:18:02.036Z,27.00
2017-04-01T08:19:08.220Z,27.57
2017-04-01T08:20:16.484Z,27.57
2017-04-01T08:21:22.543Z,25.83
2017-04-01T08:22:28.605Z,30.40
2017-04-01T08:23:34.729Z,29.92
2017-04-01T08:24:40.795Z,29.45
2017-04-01T08:25:47.516Z,31.97
2017-04-01T08:26:53.648Z,28.45
2017-04-01T08:28:06.284Z,27.17
2017-04-01T08:29:12.311Z,26.30
2017-04-01T08:30:18.303Z,28.15
2017-04-01T08:31:24.417Z,27.10
2017-04-01T08:32:31.184Z,25.15
2017-04-01T08:33:37.186Z,23.48
2017-04-01T08:34:43.401Z,28.20
2017-04-01T08:35:51.414Z,25.60
2017-04-01T08:36:57.625Z,27.77
2017-04-01T08:38:03.550Z,23.08
2017-04-01T08:39:09.691Z,25.68
2017-04-01T08:40:15.707Z,23.17
2017-04-01T08:41:21.824Z,22.38
2017-04-01T08:42:28.029Z,24.17
2017-04-01T08:43:33.984Z,22.47
2017-04-01T08:44:40.203Z,19.97
2017-04-01T08:45:46.358Z,25.52
2017-04-01T08:46:52.417Z,22.97
2017-04-01T08:47:58.684Z,25.67
2017-04-01T08:49:04.613Z,23.28
2017-04-01T08:50:11.832Z,21.37
2017-04-01T08:51:18.210Z,23.33
2017-04-01T08:52:25.090Z,21.37
2017-04-01T08:53:31.181Z,24.48
2017-04-01T08:54:37.232Z,23.18
2017-04-01T08:55:43.275Z,22.67
2017-04-01T08:56:50.498Z,21.15
2017-04-01T08:57:56.559Z,20.32
2017-04-01T08:59:03.043Z,24.72
2017-04-01T09:00:09.092Z,20.25
2017-04-01T09:01:15.762Z,22.63
2017-04-01T09:02:21.747Z,19.37
2017-04-01T09:03:28.061Z,20.45
2017-04-01T09:04:34.048Z,20.62
2017-04-01T09:05:40.220Z,19.17
2017-04-01T09:06:46.279Z,19.88
2017-04-01T09:07:52.165Z,22.55
2017-04-01T09:08:58.272Z,19.35
2017-04-01T09:10:04.344Z,17.77
2017-04-01T09:11:10.466Z,19.22
2017-04-01T09:12:18.035Z,18.03
2017-04-01T09:13:24.177Z,19.30
2017-04-01T09:14:30.204Z,18.35
2017-04-01T09:15:36.281Z,19.03
2017-04-01T09:16:42.273Z,20.38
2017-04-01T09:17:48.332Z,18.72
2017-04-01T09:18:54.417Z,17.97
2017-04-01T09:20:00.522Z,18.08
2017-04-01T09:21:07.536Z,18.43
2017-04-01T09:22:13.677Z,19.30
2017-04-01T09:23:19.667Z,15.73
2017-04-01T09:24:25.889Z,17.78
2017-04-01T09:25:32.119Z,16.22
2017-04-01T09:26:38.252Z,16.73
2017-04-01T09:27:44.245Z,17.60
2017-04-01T09:28:50.282Z,17.47
2017-04-01T09:29:56.333Z,18.48
2017-04-01T09:31:02.374Z,18.35
2017-04-01T09:32:08.698Z,14.15
2017-04-01T09:33:14.635Z,13.53
2017-04-01T09:34:20.782Z,13.95
2017-04-01T09:35:26.856Z,13.58
2017-04-01T09:36:33.008Z,13.73
2017-04-01T09:37:39.407Z,13.87
2017-04-01T09:38:45.629Z,13.50
2017-04-01T09:39:51.584Z,13.52
2017-04-01T09:40:57.752Z,12.58
2017-04-01T09:42:03.934Z,13.20
2017-04-01T09:43:10.059Z,11.80
2017-04-01T09:44:16.044Z,11.08
2017-04-01T09:45:22.327Z,11.08
2017-04-01T09:46:28.434Z,10.18
2017-04-01T09:47:34.451Z,13.02
2017-04-01T09:48:40.692Z,12.30
2017-04-01T09:49:46.797Z,11.17
2017-04-01T09:50:52.862Z,12.60
2017-04-01T09:51:58.952Z,10.92
2017-04-01T09:53:05.035Z,11.00
2017-04-01T09:54:11.848Z,9.15
2017-04-01T09:55:17.905Z,7.33
2017-04-01T09:56:23.894Z,7.40
2017-04-01T09:57:32.235Z,7.70
2017-04-01T09:58:38.564Z,8.98
2017-04-01T09:59:44.709Z,7.25
2017-04-01T10:00:51.024Z,7.57
2017-04-01T10:01:56.996Z,9.27
2017-04-01T10:03:02.985Z,9.50
2017-04-01T10:04:09.074Z,9.45
2017-04-01T10:05:15.168Z,9.02
2017-04-01T10:06:21.181Z,9.17
2017-04-01T10:07:27.081Z,8.85
2017-04-01T10:08:33.185Z,9.00
2017-04-01T10:09:39.287Z,10.05
2017-04-01T10:10:45.458Z,11.62
2017-04-01T10:11:51.564Z,11.50
2017-04-01T10:12:57.572Z,12.13
2017-04-01T10:14:03.519Z,11.12
2017-04-01T10:15:09.607Z,11.07
2017-04-01T10:16:16.605Z,12.08
2017-04-01T10:17:23.032Z,10.63
2017-04-01T10:18:29.052Z,8.63
2017-04-01T10:19:35.035Z,9.05
2017-04-01T10:20:41.080Z,11.02
2017-04-01T10:21:47.236Z,10.50
2017-04-01T10:22:53.476Z,9.90
2017-04-01T10:23:59.563Z,10.57
2017-04-01T10:25:05.575Z,10.00
2017-04-01T10:26:11.606Z,11.48
2017-04-01T10:27:17.779Z,12.28
2017-04-01T10:28:23.860Z,12.20
2017-04-01T10:29:29.881Z,11.65
2017-04-01T10:30:36.140Z,13.37
2017-04-01T10:31:42.123Z,11.87
2017-04-01T10:32:49.163Z,11.63
2017-04-01T10:33:55.194Z,10.40
2017-04-01T10:35:01.042Z,10.85
2017-04-01T10:36:07.027Z,14.47
2017-04-01T10:37:13.107Z,10.75
2017-04-01T10:38:19.187Z,12.08
2017-04-01T10:39:25.171Z,14.93
2017-04-01T10:40:31.228Z,11.95
2017-04-01T10:41:37.797Z,11.75
2017-04-01T10:42:43.776Z,11.12
2017-04-01T10:43:49.926Z,12.13
2017-04-01T10:44:55.944Z,12.33
2017-04-01T10:46:02.036Z,11.70
2017-04-01T10:47:08.221Z,11.08
2017-04-01T10:48:14.328Z,14.18
2017-04-01T10:49:20.744Z,13.50
2017-04-01T10:50:26.671Z,12.00
2017-04-01T10:51:32.826Z,13.73
2017-04-01T10:52:38.894Z,13.35
2017-04-01T10:53:44.958Z,10.98
2017-04-01T10:54:51.193Z,13.00
2017-04-01T10:55:57.223Z,14.33
2017-04-01T10:57:03.412Z,14.42
2017-04-01T10:58:09.602Z,12.93
2017-04-01T10:59:15.680Z,13.70
2017-04-01T11:00:22.095Z,12.12
2017-04-01T11:01:28.004Z,12.83
2017-04-01T11:02:34.388Z,12.50
2017-04-01T11:03:40.433Z,12.55
2017-04-01T11:04:46.439Z,12.43
2017-04-01T11:05:52.739Z,12.20
2017-04-01T11:06:58.741Z,12.68
2017-04-01T11:08:04.850Z,12.50
2017-04-01T11:09:10.863Z,13.18
2017-04-01T11:10:16.985Z,15.07
2017-04-01T11:11:23.028Z,13.10
2017-04-01T11:12:29.836Z,11.88
2017-04-01T11:13:36.005Z,14.20
2017-04-01T11:14:42.017Z,10.67
2017-04-01T11:15:48.008Z,13.27
2017-04-01T11:16:54.167Z,12.80
2017-04-01T11:18:00.088Z,10.23
2017-04-01T11:19:06.177Z,11.80
2017-04-01T11:20:12.280Z,10.63
2017-04-01T11:21:18.374Z,9.57
2017-04-01T11:22:24.728Z,12.53
2017-04-01T11:23:30.685Z,10.83
2017-04-01T11:24:36.800Z,10.15
2017-04-01T11:25:42.727Z,14.23
2017-04-01T11:26:49.411Z,10.55
2017-04-01T11:27:55.674Z,15.28
2017-04-01T11:29:03.504Z,10.80
2017-04-01T11:30:09.669Z,6.87
2017-04-01T11:31:15.719Z,8.97
2017-04-01T11:32:21.701Z,8.78
2017-04-01T11:33:27.749Z,8.87
2017-04-01T11:34:33.736Z,10.70
2017-04-01T11:35:39.798Z,9.35
2017-04-01T11:36:45.821Z,8.32
2017-04-01T11:37:51.719Z,9.03
2017-04-01T11:38:58.004Z,8.08
2017-04-01T11:40:03.979Z,10.47
2017-04-01T11:41:11.661Z,8.63
2017-04-01T11:42:17.705Z,11.25
2017-04-01T11:43:23.803Z,10.95
2017-04-01T11:44:30.218Z,9.48
2017-04-01T11:45:36.362Z,9.25
2017-04-01T11:46:42.428Z,9.20
2017-04-01T11:47:49.079Z,13.15
2017-04-01T11:48:55.296Z,8.60
2017-04-01T11:50:01.424Z,8.50
2017-04-01T11:51:07.332Z,9.67
2017-04-01T11:52:13.533Z,8.73
2017-04-01T11:53:19.675Z,9.10
2017-04-01T11:54:25.743Z,10.52
2017-04-01T11:55:31.730Z,9.83
2017-04-01T11:56:37.655Z,11.00
2017-04-01T11:57:43.557Z,8.75
2017-04-01T11:58:49.684Z,8.27
2017-04-01T11:59:55.778Z,9.53
2017-04-01T12:01:01.910Z,11.90
2017-04-01T12:02:07.842Z,10.12
2017-04-01T12:03:13.864Z,10.98
2017-04-01T12:04:19.895Z,9.82
2017-04-01T12:05:25.924Z,11.70
2017-04-01T12:06:32.852Z,10.27
2017-04-01T12:07:38.968Z,10.10
2017-04-01T12:08:45.019Z,12.63
2017-04-01T12:09:51.060Z,11.33
2017-04-01T12:10:57.023Z,11.93
2017-04-01T12:12:03.253Z,12.15
2017-04-01T12:13:09.169Z,13.55
2017-04-01T12:14:15.831Z,10.13
2017-04-01T12:15:21.876Z,11.47
2017-04-01T12:16:27.975Z,12.70
2017-04-01T12:17:34.304Z,12.33
2017-04-01T12:18:40.427Z,10.35
2017-04-01T12:19:46.463Z,15.63
2017-04-01T12:20:52.543Z,11.72
2017-04-01T12:21:58.507Z,13.72
2017-04-01T12:23:04.847Z,13.23
2017-04-01T12:24:10.869Z,14.15
2017-04-01T12:25:17.004Z,14.30
2017-04-01T12:26:23.024Z,13.55
2017-04-01T12:27:29.766Z,13.67
2017-04-01T12:28:36.117Z,13.75
2017-04-01T12:29:42.160Z,15.25
2017-04-01T12:30:48.021Z,12.72
2017-04-01T12:31:55.199Z,14.45
2017-04-01T12:33:01.188Z,13.77
2017-04-01T12:34:07.282Z,13.25
2017-04-01T12:35:13.302Z,13.58
2017-04-01T12:36:19.412Z,13.97
2017-04-01T12:37:25.287Z,14.62
2017-04-01T12:38:31.938Z,13.55
2017-04-01T12:39:38.053Z,13.07
2017-04-01T12:40:44.861Z,15.53
2017-04-01T12:41:50.881Z,14.18
2017-04-01T12:42:56.895Z,13.10
2017-04-01T12:44:02.831Z,17.77
2017-04-01T12:45:09.209Z,14.03
2017-04-01T12:46:15.239Z,15.23
2017-04-01T12:47:21.554Z,15.20
2017-04-01T12:48:27.524Z,17.12
2017-04-01T12:49:33.551Z,15.85
2017-04-01T12:50:39.956Z,18.82
2017-04-01T12:51:45.788Z,14.40
2017-04-01T12:52:51.995Z,14.17
2017-04-01T12:53:58.648Z,14.42
2017-04-01T12:55:04.674Z,14.03
2017-04-01T12:56:11.104Z,14.68
2017-04-01T12:57:17.109Z,19.12
2017-04-01T12:58:23.529Z,15.52
2017-04-01T12:59:29.396Z,14.63
2017-04-01T13:00:35.464Z,14.50
2017-04-01T13:01:41.509Z,15.05
2017-04-01T13:02:47.464Z,14.78
2017-04-01T13:03:53.674Z,14.30
2017-04-01T13:04:59.647Z,16.18
2017-04-01T13:06:05.641Z,12.92
2017-04-01T13:07:11.883Z,11.73
2017-04-01T13:08:18.537Z,12.50
2017-04-01T13:09:24.547Z,11.98
2017-04-01T13:10:30.762Z,13.82
2017-04-01T13:11:36.660Z,12.43
2017-04-01T13:12:43.448Z,10.85
2017-04-01T13:13:49.347Z,11.92
2017-04-01T13:14:55.471Z,14.45
2017-04-01T13:16:01.724Z,12.62
2017-04-01T13:17:07.584Z,11.97
2017-04-01T13:18:13.663Z,12.73
2017-04-01T13:19:20.516Z,12.10
2017-04-01T13:20:26.507Z,11.87
2017-04-01T13:21:32.737Z,11.78
2017-04-01T13:22:40.420Z,12.30
2017-04-01T13:23:46.528Z,11.47
2017-04-01T13:24:52.499Z,11.32
2017-04-01T13:25:58.456Z,11.70
2017-04-01T13:27:04.632Z,12.88
2017-04-01T13:28:15.059Z,11.72
2017-04-01T13:29:21.357Z,12.82
2017-04-01T13:30:27.348Z,14.05
2017-04-01T13:31:33.724Z,12.67
2017-04-01T13:32:41.363Z,12.60
2017-04-01T13:33:47.572Z,13.27
2017-04-01T13:34:59.523Z,11.57
2017-04-01T13:36:06.723Z,15.93
2017-04-01T13:37:13.381Z,11.85
2017-04-01T13:38:19.633Z,11.52
2017-04-01T13:39:25.538Z,12.87
2017-04-01T13:40:31.899Z,12.22
2017-04-01T13:41:37.988Z,12.28
2017-04-01T13:42:44.393Z,12.57
2017-04-01T13:43:50.534Z,13.93
2017-04-01T13:44:57.608Z,10.57
2017-04-01T13:46:03.947Z,11.42
2017-04-01T13:47:11.041Z,13.07
2017-04-01T13:48:17.323Z,12.07
2017-04-01T13:49:24.215Z,14.33
2017-04-01T13:50:30.414Z,15.13
2017-04-01T13:51:36.796Z,13.18
2017-04-01T13:52:43.197Z,14.35
2017-04-01T13:53:49.207Z,11.27
2017-04-01T13:54:55.216Z,13.92
2017-04-01T13:56:01.370Z,13.85
2017-04-01T13:57:07.415Z,15.02
2017-04-01T13:58:13.860Z,13.98
2017-04-01T13:59:20.545Z,12.70
2017-04-01T14:00:26.652Z,13.90
2017-04-01T14:01:32.717Z,13.20
2017-04-01T14:02:38.793Z,13.02
2017-04-01T14:03:44.796Z,11.97
2017-04-01T14:04:51.111Z,13.57
2017-04-01T14:05:57.199Z,16.67
2017-04-01T14:07:03.422Z,11.45
2017-04-01T14:08:09.752Z,12.95
2017-04-01T14:09:16.279Z,17.45
2017-04-01T14:10:23.219Z,12.47
2017-04-01T14:11:29.765Z,13.23
2017-04-01T14:12:35.927Z,13.95
2017-04-01T14:13:42.382Z,11.95
2017-04-01T14:14:49.418Z,12.72
2017-04-01T14:15:55.486Z,12.28